createdAt,value
2019-03-03T00:04:21.881Z,60.20
2019-03-03T00:09:23.926Z,60.23
2019-03-03T00:14:25.968Z,60.43
2019-03-03T00:19:28.051Z,60.68
2019-03-03T00:24:30.127Z,60.80
2019-03-03T00:29:32.179Z,60.76
2019-03-03T00:34:34.248Z,60.79
2019-03-03T00:39:49.421Z,60.53
2019-03-03T00:45:00.972Z,60.32
2019-03-03T00:50:17.446Z,60.06
2019-03-03T00:55:37.881Z,59.81
2019-03-03T01:00:47.413Z,59.99
2019-03-03T01:06:03.809Z,60.21
2019-03-03T01:11:19.109Z,60.09
2019-03-03T01:16:38.038Z,60.14
2019-03-03T01:21:59.732Z,60.12
2019-03-03T01:27:01.845Z,60.00
2019-03-03T01:32:04.122Z,60.14
2019-03-03T01:37:08.581Z,60.28
2019-03-03T01:42:10.693Z,60.62
2019-03-03T01:47:12.786Z,60.96
2019-03-03T01:52:14.853Z,61.08
2019-03-03T01:57:16.992Z,61.29
2019-03-03T02:02:19.300Z,61.30
2019-03-03T02:07:21.474Z,61.41
2019-03-03T02:12:23.503Z,61.28
2019-03-03T02:17:25.584Z,61.29
2019-03-03T02:22:27.651Z,61.21
2019-03-03T02:27:29.753Z,61.31
2019-03-03T02:32:31.789Z,61.61
2019-03-03T02:37:33.870Z,61.50
2019-03-03T02:42:38.041Z,61.33
2019-03-03T02:47:40.135Z,61.26
2019-03-03T02:52:42.493Z,61.22
2019-03-03T02:57:44.577Z,61.14
2019-03-03T03:03:06.922Z,61.09
2019-03-03T03:08:11.659Z,61.05
2019-03-03T03:13:51.591Z,60.86
2019-03-03T03:19:22.151Z,60.72
2019-03-03T03:24:49.968Z,60.69
2019-03-03T03:30:10.598Z,60.68
2019-03-03T03:35:18.184Z,60.62
2019-03-03T03:40:42.536Z,60.65
2019-03-03T03:46:03.086Z,60.70
2019-03-03T03:51:27.203Z,60.70
2019-03-03T03:56:47.294Z,60.65
2019-03-03T04:02:08.992Z,60.61
2019-03-03T04:07:27.147Z,60.61
2019-03-03T04:13:06.828Z,60.30
2019-03-03T04:18:33.664Z,60.20
2019-03-03T04:23:46.375Z,59.93
2019-03-03T04:29:06.730Z,59.70
2019-03-03T04:34:17.585Z,59.32
2019-03-03T04:39:45.935Z,58.92
2019-03-03T04:45:19.717Z,58.76
2019-03-03T04:50:42.772Z,58.90
2019-03-03T04:56:04.455Z,58.80
2019-03-03T05:01:44.283Z,58.54
2019-03-03T05:07:08.650Z,58.02
2019-03-03T05:12:44.204Z,57.74
2019-03-03T05:17:54.087Z,57.42
2019-03-03T05:22:56.126Z,57.02
2019-03-03T05:27:58.160Z,56.60
2019-03-03T05:33:00.133Z,56.49
2019-03-03T05:38:02.284Z,56.14
2019-03-03T05:43:04.373Z,55.93
2019-03-03T05:48:06.552Z,55.85
2019-03-03T05:53:08.631Z,55.86
2019-03-03T05:58:10.747Z,55.93
2019-03-03T06:03:12.813Z,56.09
2019-03-03T06:08:14.871Z,56.47
2019-03-03T06:13:16.854Z,56.54
2019-03-03T06:18:18.911Z,56.77
2019-03-03T06:23:20.948Z,56.84
2019-03-03T06:28:23.084Z,56.92
2019-03-03T06:33:25.191Z,57.09
2019-03-03T06:38:27.281Z,56.96
2019-03-03T06:43:29.357Z,56.81
2019-03-03T06:48:31.422Z,56.84
2019-03-03T06:53:33.484Z,56.86
2019-03-03T06:58:35.576Z,56.68
2019-03-03T07:03:37.658Z,56.68
2019-03-03T07:08:39.742Z,56.57
2019-03-03T07:13:41.859Z,56.61
2019-03-03T07:18:43.940Z,56.56
2019-03-03T07:23:46.020Z,56.44
2019-03-03T07:28:48.255Z,56.31
2019-03-03T07:33:55.820Z,56.06
2019-03-03T07:38:57.959Z,55.89
2019-03-03T07:44:00.077Z,55.72
2019-03-03T07:49:02.174Z,55.49
2019-03-03T07:54:04.199Z,55.40
2019-03-03T07:59:06.295Z,55.31
2019-03-03T08:04:08.393Z,55.19
2019-03-03T08:09:10.553Z,55.21
2019-03-03T08:14:12.667Z,55.27
2019-03-03T08:19:14.738Z,55.00
2019-03-03T08:24:16.839Z,55.04
2019-03-03T08:29:18.899Z,55.23
2019-03-03T08:34:20.942Z,55.02
2019-03-03T08:39:23.043Z,54.67
2019-03-03T08:44:45.146Z,54.54
2019-03-03T08:49:58.199Z,54.30
2019-03-03T08:55:31.618Z,54.16
2019-03-03T09:00:39.367Z,53.63
2019-03-03T09:06:16.227Z,53.42
2019-03-03T09:11:46.526Z,53.10
2019-03-03T09:17:18.219Z,53.10
2019-03-03T09:22:39.899Z,53.00
2019-03-03T09:28:04.446Z,52.67
2019-03-03T09:33:26.820Z,52.43
2019-03-03T09:38:36.839Z,52.44
2019-03-03T09:43:58.549Z,52.04
2019-03-03T09:49:17.251Z,52.04
2019-03-03T09:54:27.312Z,52.02
2019-03-03T09:59:52.220Z,52.07
2019-03-03T10:05:06.198Z,52.03
2019-03-03T10:10:38.590Z,51.99
2019-03-03T10:15:48.278Z,51.99
2019-03-03T10:21:08.645Z,52.43
2019-03-03T10:26:24.084Z,52.68
2019-03-03T10:31:57.931Z,52.22
2019-03-03T10:37:27.023Z,52.09
2019-03-03T10:42:39.022Z,51.79
2019-03-03T10:48:12.507Z,51.49
2019-03-03T10:53:29.038Z,51.48
2019-03-03T10:59:08.763Z,51.17
2019-03-03T11:04:48.427Z,51.34
2019-03-03T11:10:01.731Z,51.55
2019-03-03T11:15:33.778Z,51.66
2019-03-03T11:20:46.261Z,52.13
2019-03-03T11:26:26.100Z,52.57
2019-03-03T11:31:53.125Z,53.77
2019-03-03T11:37:06.659Z,54.64
2019-03-03T11:42:15.977Z,55.70
2019-03-03T11:47:36.296Z,56.46
2019-03-03T11:53:00.553Z,56.70
2019-03-03T11:58:17.016Z,56.73
2019-03-03T12:03:47.059Z,57.05
2019-03-03T12:09:07.209Z,57.43
2019-03-03T12:14:17.781Z,57.48
2019-03-03T12:19:37.082Z,57.62
2019-03-03T12:24:58.794Z,57.72
2019-03-03T12:30:09.679Z,57.66
2019-03-03T12:35:40.297Z,57.20
2019-03-03T12:40:55.298Z,57.11
2019-03-03T12:46:15.618Z,56.78
2019-03-03T12:51:37.328Z,56.80
2019-03-03T12:56:54.523Z,56.60
2019-03-03T13:02:13.853Z,56.39
2019-03-03T13:07:34.176Z,56.22
2019-03-03T13:12:54.215Z,56.00
2019-03-03T13:18:07.026Z,55.96
2019-03-03T13:23:34.285Z,55.73
2019-03-03T13:28:58.882Z,55.90
2019-03-03T13:34:16.088Z,55.80
2019-03-03T13:39:37.763Z,55.78
2019-03-03T13:44:39.854Z,55.64
2019-03-03T13:49:41.931Z,55.68
2019-03-03T13:54:43.972Z,55.41
2019-03-03T13:59:46.074Z,55.26
2019-03-03T14:04:48.095Z,55.24
2019-03-03T14:09:50.141Z,55.32
2019-03-03T14:14:52.182Z,55.25
2019-03-03T14:19:54.346Z,55.10
2019-03-03T14:24:56.501Z,55.07
2019-03-03T14:29:58.560Z,54.89
2019-03-03T14:35:00.591Z,54.82
2019-03-03T14:40:03.381Z,54.83
2019-03-03T14:45:06.188Z,54.68
2019-03-03T14:50:11.378Z,54.57
2019-03-03T14:55:14.892Z,54.58
2019-03-03T15:00:31.852Z,54.44
2019-03-03T15:05:34.040Z,54.37
2019-03-03T15:10:38.568Z,54.34
2019-03-03T15:15:40.668Z,54.14
2019-03-03T15:20:42.687Z,54.08
2019-03-03T15:25:44.748Z,54.03
2019-03-03T15:30:46.901Z,54.20
2019-03-03T15:35:50.701Z,54.65
2019-03-03T15:40:53.092Z,54.83
2019-03-03T15:46:00.566Z,55.00
2019-03-03T15:51:02.809Z,55.08
2019-03-03T15:56:04.911Z,55.32
2019-03-03T16:01:12.481Z,55.36
2019-03-03T16:06:15.071Z,55.51
2019-03-03T16:11:17.407Z,55.35
2019-03-03T16:16:19.493Z,55.40
2019-03-03T16:21:21.557Z,55.38
2019-03-03T16:26:23.607Z,55.51
2019-03-03T16:31:25.664Z,55.77
2019-03-03T16:36:27.688Z,55.81
2019-03-03T16:41:29.763Z,56.11
2019-03-03T16:46:31.896Z,56.14
2019-03-03T16:51:33.966Z,56.41
2019-03-03T16:56:36.048Z,56.44
2019-03-03T17:01:38.158Z,56.51
2019-03-03T17:06:40.315Z,56.81
2019-03-03T17:11:42.423Z,56.85
2019-03-03T17:16:44.515Z,57.24
2019-03-03T17:21:46.585Z,57.02
2019-03-03T17:26:48.606Z,57.14
2019-03-03T17:31:50.636Z,57.18
2019-03-03T17:36:52.708Z,57.27
2019-03-03T17:41:56.088Z,57.23
2019-03-03T17:46:58.159Z,57.07
2019-03-03T17:52:00.214Z,56.91
2019-03-03T17:57:02.373Z,56.69
2019-03-03T18:02:04.616Z,56.68
2019-03-03T18:07:06.654Z,56.41
2019-03-03T18:12:08.783Z,56.31
2019-03-03T18:17:10.802Z,56.13
2019-03-03T18:22:12.824Z,56.12
2019-03-03T18:27:15.094Z,56.08
2019-03-03T18:32:17.156Z,56.07
2019-03-03T18:37:19.186Z,56.06
2019-03-03T18:42:21.422Z,55.99
2019-03-03T18:47:23.509Z,55.80
2019-03-03T18:52:25.602Z,55.97
2019-03-03T18:57:27.662Z,56.00
2019-03-03T19:02:29.694Z,55.83
2019-03-03T19:07:31.723Z,55.85
2019-03-03T19:12:33.815Z,55.96
2019-03-03T19:17:36.000Z,56.12
2019-03-03T19:22:39.432Z,56.31
2019-03-03T19:27:41.484Z,56.19
2019-03-03T19:32:43.995Z,56.17
2019-03-03T19:37:46.273Z,56.20
2019-03-03T19:42:48.338Z,56.25
2019-03-03T19:47:50.470Z,56.41
2019-03-03T19:52:52.501Z,56.60
2019-03-03T19:57:54.578Z,56.70
2019-03-03T20:02:56.631Z,56.78
2019-03-03T20:07:58.657Z,56.88
2019-03-03T20:13:00.818Z,56.88
2019-03-03T20:18:03.550Z,56.75
2019-03-03T20:23:05.654Z,56.79
2019-03-03T20:28:07.673Z,56.86
2019-03-03T20:33:09.821Z,56.89
2019-03-03T20:38:11.885Z,56.73
2019-03-03T20:43:14.076Z,56.60
2019-03-03T20:48:16.155Z,56.57
2019-03-03T20:53:19.483Z,56.43
2019-03-03T20:58:21.731Z,56.54
2019-03-03T21:03:26.188Z,56.67
2019-03-03T21:08:28.217Z,56.66
2019-03-03T21:13:30.241Z,56.45
2019-03-03T21:18:32.295Z,56.53
2019-03-03T21:23:34.331Z,56.50
2019-03-03T21:28:36.392Z,56.35
2019-03-03T21:33:39.240Z,56.26
2019-03-03T21:38:41.366Z,56.29
2019-03-03T21:43:43.627Z,56.15
2019-03-03T21:48:45.772Z,56.03
2019-03-03T21:53:47.843Z,56.05
2019-03-03T21:58:49.940Z,55.83
2019-03-03T22:03:52.084Z,55.58
2019-03-03T22:08:54.190Z,55.44
2019-03-03T22:13:56.367Z,55.36
2019-03-03T22:18:58.482Z,55.27
2019-03-03T22:24:00.579Z,55.07
2019-03-03T22:29:02.819Z,54.92
2019-03-03T22:34:04.852Z,54.74
2019-03-03T22:39:07.905Z,54.60
2019-03-03T22:44:10.088Z,54.44
2019-03-03T22:49:12.137Z,54.40
2019-03-03T22:54:14.232Z,54.22
2019-03-03T22:59:16.306Z,54.14
2019-03-03T23:04:51.397Z,54.16
2019-03-03T23:10:25.284Z,54.11
2019-03-03T23:16:24.601Z,54.23
2019-03-03T23:22:17.715Z,54.37
2019-03-03T23:27:19.767Z,54.46
2019-03-03T23:32:21.888Z,54.48
2019-03-03T23:37:23.959Z,54.45
2019-03-03T23:42:26.020Z,54.57
2019-03-03T23:47:28.077Z,54.67
2019-03-03T23:52:30.141Z,54.79
2019-03-03T23:57:32.196Z,54.93
